createdAt,value
2022-10-26T00:01:04.861Z,3.80
2022-10-26T00:03:33.074Z,3.57
2022-10-26T00:06:08.952Z,4.63
2022-10-26T00:08:37.509Z,3.30
2022-10-26T00:11:05.859Z,4.30
2022-10-26T00:13:34.267Z,3.57
2022-10-26T00:16:08.438Z,4.77
2022-10-26T00:18:36.601Z,10.77
2022-10-26T00:21:05.757Z,4.30
2022-10-26T00:23:34.058Z,5.37
2022-10-26T00:26:02.388Z,3.50
2022-10-26T00:28:30.538Z,4.20
2022-10-26T00:31:03.683Z,3.57
2022-10-26T00:33:32.383Z,3.67
2022-10-26T00:36:00.420Z,4.33
2022-10-26T00:38:28.494Z,3.57
2022-10-26T00:43:39.992Z,3.53
2022-10-26T00:46:14.530Z,4.00
2022-10-26T00:48:46.770Z,3.93
2022-10-26T00:51:21.641Z,4.80
2022-10-26T00:53:49.973Z,3.30
2022-10-26T00:56:18.849Z,3.80
2022-10-26T00:58:47.106Z,4.17
2022-10-26T01:01:16.783Z,4.00
2022-10-26T01:03:45.864Z,3.53
2022-10-26T01:06:14.566Z,3.37
2022-10-26T01:08:44.253Z,3.73
2022-10-26T01:11:13.035Z,3.60
2022-10-26T01:13:43.209Z,4.90
2022-10-26T01:16:30.677Z,3.87
2022-10-26T01:19:10.997Z,3.50
2022-10-26T01:21:52.549Z,3.00
2022-10-26T01:24:33.002Z,4.00
2022-10-26T01:27:14.380Z,3.73
2022-10-26T01:30:25.125Z,5.27
2022-10-26T01:33:16.445Z,3.90
2022-10-26T01:35:53.810Z,5.03
2022-10-26T01:38:30.271Z,4.63
2022-10-26T01:41:04.204Z,6.30
2022-10-26T01:43:34.804Z,4.40
2022-10-26T01:46:06.559Z,6.73
2022-10-26T01:48:36.059Z,4.20
2022-10-26T01:51:05.399Z,4.80
2022-10-26T01:53:33.354Z,3.60
2022-10-26T01:56:02.598Z,3.67
2022-10-26T01:58:45.549Z,3.67
2022-10-26T02:01:34.386Z,3.63
2022-10-26T02:04:12.898Z,3.77
2022-10-26T02:06:50.104Z,5.47
2022-10-26T02:09:25.870Z,3.67
2022-10-26T02:11:55.362Z,3.37
2022-10-26T02:14:29.217Z,3.90
2022-10-26T02:17:02.371Z,3.80
2022-10-26T02:19:37.468Z,3.70
2022-10-26T02:22:14.517Z,3.50
2022-10-26T02:24:43.633Z,3.80
2022-10-26T02:27:17.689Z,4.30
2022-10-26T02:29:46.320Z,6.00
2022-10-26T02:32:16.786Z,3.50
2022-10-26T02:34:46.948Z,3.63
2022-10-26T02:37:19.278Z,3.60
2022-10-26T02:39:50.530Z,3.60
2022-10-26T02:42:20.007Z,6.20
2022-10-26T02:44:51.285Z,4.40
2022-10-26T02:47:22.401Z,2.43
2022-10-26T02:49:50.646Z,3.47
2022-10-26T02:52:25.308Z,3.13
2022-10-26T02:54:56.109Z,3.33
2022-10-26T02:57:29.950Z,3.80
2022-10-26T02:59:59.173Z,3.03
2022-10-26T03:02:30.280Z,3.10
2022-10-26T03:05:07.456Z,2.70
2022-10-26T03:07:35.423Z,3.33
2022-10-26T03:10:03.479Z,2.20
2022-10-26T03:12:31.491Z,2.70
2022-10-26T03:14:59.535Z,2.90
2022-10-26T03:17:28.892Z,2.30
2022-10-26T03:19:57.116Z,5.17
2022-10-26T03:22:25.194Z,3.73
2022-10-26T03:24:53.127Z,3.37
2022-10-26T03:27:21.112Z,2.50
2022-10-26T03:29:49.120Z,2.30
2022-10-26T03:32:17.053Z,1.93
2022-10-26T03:34:46.406Z,5.53
2022-10-26T03:37:14.334Z,2.00
2022-10-26T03:39:42.267Z,3.47
2022-10-26T03:42:10.175Z,2.30
2022-10-26T03:44:38.116Z,2.83
2022-10-26T03:47:06.186Z,2.17
2022-10-26T03:49:34.176Z,2.33
2022-10-26T03:52:03.574Z,2.00
2022-10-26T03:54:31.540Z,2.33
2022-10-26T03:56:59.443Z,3.20
2022-10-26T03:59:27.369Z,2.20
2022-10-26T04:01:57.682Z,2.30
2022-10-26T04:04:26.233Z,1.90
2022-10-26T04:06:54.319Z,1.83
2022-10-26T04:09:23.609Z,2.70
2022-10-26T04:11:51.554Z,2.80
2022-10-26T04:14:19.535Z,3.50
2022-10-26T04:16:47.460Z,3.60
2022-10-26T04:19:15.415Z,3.17
2022-10-26T04:21:43.337Z,2.70
2022-10-26T04:24:12.169Z,3.07
2022-10-26T04:26:41.439Z,2.90
2022-10-26T04:29:09.366Z,2.90
2022-10-26T04:31:37.368Z,2.93
2022-10-26T04:34:05.386Z,3.63
2022-10-26T04:36:34.497Z,3.33
2022-10-26T04:39:02.583Z,4.50
2022-10-26T04:41:30.497Z,5.70
2022-10-26T04:43:59.980Z,3.50
2022-10-26T04:46:27.900Z,3.40
2022-10-26T04:48:55.857Z,2.77
2022-10-26T04:51:23.769Z,3.93
2022-10-26T04:53:54.155Z,4.60
2022-10-26T04:56:22.216Z,2.63
2022-10-26T04:58:50.199Z,2.90
2022-10-26T05:01:19.621Z,4.40
2022-10-26T05:03:50.569Z,5.87
2022-10-26T05:06:18.622Z,6.23
2022-10-26T05:08:46.679Z,4.97
2022-10-26T05:11:14.616Z,8.00
2022-10-26T05:13:42.638Z,7.90
2022-10-26T05:16:10.662Z,6.50
2022-10-26T05:18:39.938Z,4.20
2022-10-26T05:21:07.886Z,3.47
2022-10-26T05:23:35.849Z,3.80
2022-10-26T05:26:04.637Z,5.10
2022-10-26T05:28:32.576Z,3.97
2022-10-26T05:31:00.860Z,3.63
2022-10-26T05:33:28.801Z,4.77
2022-10-26T05:35:58.088Z,3.47
2022-10-26T05:40:56.168Z,2.67
2022-10-26T05:43:25.025Z,3.17
2022-10-26T05:45:53.112Z,2.03
2022-10-26T05:48:21.172Z,2.50
2022-10-26T05:50:49.312Z,3.00
2022-10-26T05:53:18.649Z,3.03
2022-10-26T05:55:47.241Z,2.27
2022-10-26T05:58:16.553Z,2.40
2022-10-26T06:00:57.630Z,3.03
2022-10-26T06:03:39.243Z,2.27
2022-10-26T06:06:10.929Z,2.67
2022-10-26T06:08:42.896Z,4.93
2022-10-26T06:11:11.836Z,2.07
2022-10-26T06:13:40.305Z,3.20
2022-10-26T06:16:30.642Z,3.13
2022-10-26T06:19:07.695Z,3.03
2022-10-26T06:21:49.127Z,2.50
2022-10-26T06:24:28.415Z,2.77
2022-10-26T06:27:05.173Z,2.07
2022-10-26T06:29:43.083Z,3.03
2022-10-26T06:32:11.702Z,2.37
2022-10-26T06:34:46.146Z,2.40
2022-10-26T06:37:15.023Z,3.00
2022-10-26T06:39:48.932Z,2.30
2022-10-26T06:42:20.534Z,2.93
2022-10-26T06:44:55.506Z,2.17
2022-10-26T06:47:27.238Z,2.60
2022-10-26T06:50:04.732Z,3.03
2022-10-26T06:52:36.817Z,1.90
2022-10-26T06:55:07.308Z,2.20
2022-10-26T06:57:36.793Z,3.30
2022-10-26T07:00:07.633Z,2.23
2022-10-26T07:02:35.722Z,3.53
2022-10-26T07:05:03.794Z,4.00
2022-10-26T07:07:32.420Z,3.60
2022-10-26T07:10:00.457Z,2.40
2022-10-26T07:12:32.220Z,2.93
2022-10-26T07:17:44.774Z,2.30
2022-10-26T07:20:13.578Z,3.00
2022-10-26T07:22:42.736Z,2.57
2022-10-26T07:25:12.173Z,2.33
2022-10-26T07:27:41.476Z,2.30
2022-10-26T07:30:11.379Z,3.47
2022-10-26T07:32:39.522Z,4.97
2022-10-26T07:35:08.041Z,5.57
2022-10-26T07:37:35.984Z,4.83
2022-10-26T07:40:06.629Z,4.30
2022-10-26T07:42:36.494Z,1.80
2022-10-26T07:45:07.226Z,3.20
2022-10-26T07:47:35.128Z,3.43
2022-10-26T07:50:03.439Z,2.83
2022-10-26T07:52:31.374Z,1.90
2022-10-26T07:54:59.338Z,2.40
2022-10-26T07:57:27.262Z,2.87
2022-10-26T07:59:55.362Z,4.40
2022-10-26T08:02:25.494Z,3.03
2022-10-26T08:04:53.472Z,3.20
2022-10-26T08:07:21.651Z,3.37
2022-10-26T08:09:49.581Z,3.23
2022-10-26T08:12:17.530Z,4.10
2022-10-26T08:14:49.843Z,3.63
2022-10-26T08:17:17.781Z,4.27
2022-10-26T08:19:49.448Z,3.00
2022-10-26T08:22:17.524Z,5.43
2022-10-26T08:24:46.759Z,2.67
2022-10-26T08:27:15.523Z,2.63
2022-10-26T08:29:43.865Z,2.63
2022-10-26T08:32:11.812Z,2.40
2022-10-26T08:34:39.762Z,2.87
2022-10-26T08:37:09.066Z,2.57
2022-10-26T08:39:36.983Z,2.20
2022-10-26T08:42:12.603Z,2.60
2022-10-26T08:44:47.540Z,3.57
2022-10-26T08:47:20.647Z,3.83
2022-10-26T08:49:55.193Z,2.53
2022-10-26T08:52:33.942Z,3.27
2022-10-26T08:55:04.706Z,4.60
2022-10-26T08:57:37.932Z,3.80
2022-10-26T09:00:11.979Z,3.03
2022-10-26T09:02:40.033Z,3.57
2022-10-26T09:05:16.898Z,2.70
2022-10-26T09:07:57.061Z,3.23
2022-10-26T09:10:37.142Z,3.30
2022-10-26T09:13:13.620Z,3.20
2022-10-26T09:15:53.543Z,4.07
2022-10-26T09:18:38.094Z,2.90
2022-10-26T09:21:16.563Z,3.17
2022-10-26T09:23:59.757Z,2.90
2022-10-26T09:26:34.081Z,5.50
2022-10-26T09:29:05.798Z,2.93
2022-10-26T09:31:43.260Z,3.17
2022-10-26T09:34:21.440Z,3.33
2022-10-26T09:36:54.167Z,5.30
2022-10-26T09:39:31.602Z,3.50
2022-10-26T09:42:05.752Z,3.73
2022-10-26T09:44:40.214Z,4.33
2022-10-26T09:47:17.011Z,2.93
2022-10-26T09:49:48.903Z,3.57
2022-10-26T09:52:17.457Z,7.60
2022-10-26T09:54:46.757Z,2.33
2022-10-26T09:57:16.952Z,3.10
2022-10-26T09:59:47.789Z,3.43
2022-10-26T10:02:34.640Z,3.40
2022-10-26T10:05:02.955Z,5.27
2022-10-26T10:07:30.902Z,2.70
2022-10-26T10:10:18.302Z,4.43
2022-10-26T10:12:50.977Z,3.00
2022-10-26T10:15:21.513Z,2.90
2022-10-26T10:17:56.167Z,3.97
2022-10-26T10:20:27.867Z,2.10
2022-10-26T10:22:58.354Z,3.30
2022-10-26T10:25:37.142Z,2.43
2022-10-26T10:28:22.416Z,2.73
2022-10-26T10:30:55.521Z,3.73
2022-10-26T10:33:23.475Z,2.80
2022-10-26T10:35:53.421Z,2.40
2022-10-26T10:38:22.486Z,4.30
2022-10-26T10:40:54.224Z,3.40
2022-10-26T10:43:22.897Z,4.70
2022-10-26T10:45:55.851Z,4.23
2022-10-26T10:48:29.071Z,4.17
2022-10-26T10:50:59.119Z,5.57
2022-10-26T10:53:33.704Z,2.37
2022-10-26T10:56:21.101Z,6.50
2022-10-26T10:58:58.340Z,5.13
2022-10-26T11:01:31.914Z,3.63
2022-10-26T11:04:22.345Z,2.83
2022-10-26T11:06:51.382Z,1.67
2022-10-26T11:09:22.720Z,2.37
2022-10-26T11:11:55.845Z,3.67
2022-10-26T11:14:27.186Z,3.40
2022-10-26T11:17:02.347Z,2.17
2022-10-26T11:19:34.901Z,4.77
2022-10-26T11:22:05.959Z,1.63
2022-10-26T11:24:40.095Z,3.17
2022-10-26T11:27:16.619Z,3.73
2022-10-26T11:29:51.084Z,1.83
2022-10-26T11:32:23.771Z,5.80
2022-10-26T11:34:56.500Z,2.10
2022-10-26T11:37:30.761Z,2.30
2022-10-26T11:40:15.888Z,4.13
2022-10-26T11:42:50.062Z,3.33
2022-10-26T11:45:24.277Z,4.27
2022-10-26T11:47:55.874Z,2.70
2022-10-26T11:50:26.570Z,2.70
2022-10-26T11:52:58.642Z,3.30
2022-10-26T11:55:26.575Z,3.10
2022-10-26T11:57:56.006Z,2.27
2022-10-26T12:00:24.638Z,2.80
2022-10-26T12:02:58.540Z,1.80
2022-10-26T12:05:36.950Z,2.10
2022-10-26T12:08:10.925Z,4.93
2022-10-26T12:10:42.866Z,3.80
2022-10-26T12:13:22.971Z,2.30
2022-10-26T12:16:04.070Z,4.73
2022-10-26T12:18:56.572Z,3.00
2022-10-26T12:21:28.822Z,3.50
2022-10-26T12:23:59.517Z,4.37
2022-10-26T12:26:55.077Z,3.03
2022-10-26T12:29:49.258Z,3.20
2022-10-26T12:32:52.424Z,4.10
2022-10-26T12:35:36.670Z,3.80
2022-10-26T12:38:49.457Z,2.73
2022-10-26T12:41:28.513Z,3.37
2022-10-26T12:43:57.963Z,3.37
2022-10-26T12:46:45.579Z,3.77
2022-10-26T12:49:58.280Z,2.70
2022-10-26T12:52:52.826Z,7.60
2022-10-26T12:55:43.073Z,3.30
2022-10-26T12:58:43.917Z,2.23
2022-10-26T13:01:45.365Z,2.50
2022-10-26T13:04:39.106Z,3.03
2022-10-26T13:07:20.345Z,3.00
2022-10-26T13:09:56.874Z,2.67
2022-10-26T13:12:25.680Z,3.00
2022-10-26T13:14:59.905Z,2.57
2022-10-26T13:17:29.920Z,2.47
2022-10-26T13:20:01.584Z,1.70
2022-10-26T13:22:30.663Z,3.00
2022-10-26T13:25:01.875Z,1.90
2022-10-26T13:27:43.504Z,3.90
2022-10-26T13:30:36.780Z,2.57
2022-10-26T13:33:09.387Z,2.70
2022-10-26T13:35:42.759Z,4.00
2022-10-26T13:38:13.495Z,2.00
2022-10-26T13:40:42.003Z,5.23
2022-10-26T13:43:20.274Z,2.97
2022-10-26T13:45:54.660Z,3.80
2022-10-26T13:48:29.768Z,4.83
2022-10-26T13:51:03.049Z,4.13
2022-10-26T13:53:41.236Z,3.70
2022-10-26T13:56:18.987Z,2.87
2022-10-26T13:58:51.124Z,2.20
2022-10-26T14:01:23.057Z,2.80
2022-10-26T14:03:51.655Z,2.20
2022-10-26T14:06:25.743Z,3.10
2022-10-26T14:08:57.685Z,1.70
2022-10-26T14:11:33.365Z,4.83
2022-10-26T14:14:02.857Z,2.60
2022-10-26T14:16:33.145Z,4.10
2022-10-26T14:19:01.406Z,2.90
2022-10-26T14:21:31.167Z,1.70
2022-10-26T14:24:03.525Z,2.30
2022-10-26T14:26:39.664Z,3.90
2022-10-26T14:29:17.464Z,4.57
2022-10-26T14:31:45.490Z,4.67
2022-10-26T14:34:14.034Z,3.60
2022-10-26T14:36:47.442Z,4.37
2022-10-26T14:39:25.500Z,4.10
2022-10-26T14:41:55.488Z,5.87
2022-10-26T14:44:25.512Z,2.93
2022-10-26T14:46:54.445Z,4.50
2022-10-26T14:49:24.797Z,2.20
2022-10-26T14:51:59.765Z,4.60
2022-10-26T14:54:29.958Z,2.80
2022-10-26T14:56:58.062Z,2.93
2022-10-26T14:59:28.721Z,5.73
2022-10-26T15:01:57.900Z,3.63
2022-10-26T15:04:32.729Z,4.00
2022-10-26T15:07:10.016Z,2.23
2022-10-26T15:09:44.064Z,3.30
2022-10-26T15:12:30.791Z,5.23
2022-10-26T15:17:55.203Z,4.17
2022-10-26T15:20:24.861Z,4.33
2022-10-26T15:22:55.761Z,3.43
2022-10-26T15:25:26.630Z,2.80
2022-10-26T15:27:54.819Z,4.03
2022-10-26T15:30:26.214Z,3.67
2022-10-26T15:32:55.471Z,3.53
2022-10-26T15:35:32.173Z,4.50
2022-10-26T15:38:02.009Z,4.03
2022-10-26T15:40:32.145Z,2.60
2022-10-26T15:43:01.741Z,3.23
2022-10-26T15:45:33.083Z,3.00
2022-10-26T15:48:17.931Z,3.93
2022-10-26T15:50:45.862Z,4.77
2022-10-26T15:53:20.989Z,3.83
2022-10-26T15:55:49.422Z,6.60
2022-10-26T15:58:17.690Z,4.43
2022-10-26T16:00:45.882Z,5.43
2022-10-26T16:03:16.924Z,3.80
2022-10-26T16:05:44.930Z,4.47
2022-10-26T16:08:18.035Z,5.30
2022-10-26T16:10:47.489Z,3.60
2022-10-26T16:13:16.383Z,5.27
2022-10-26T16:15:44.538Z,2.83
2022-10-26T16:18:12.463Z,5.03
2022-10-26T16:20:40.653Z,5.50
2022-10-26T16:23:08.709Z,3.93
2022-10-26T16:25:44.338Z,4.80
2022-10-26T16:28:13.399Z,3.80
2022-10-26T16:33:14.638Z,3.10
2022-10-26T16:35:42.574Z,5.57
2022-10-26T16:38:10.750Z,3.50
2022-10-26T16:40:42.460Z,4.90
2022-10-26T16:43:10.414Z,3.73
2022-10-26T16:45:40.706Z,5.90
2022-10-26T16:48:14.305Z,3.30
2022-10-26T16:50:42.192Z,5.50
2022-10-26T16:53:10.129Z,5.17
2022-10-26T16:55:39.412Z,5.23
2022-10-26T16:58:07.317Z,8.10
2022-10-26T17:00:36.516Z,4.57
2022-10-26T17:03:05.103Z,7.07
2022-10-26T17:05:33.359Z,6.43
2022-10-26T17:08:01.290Z,7.60
2022-10-26T17:10:29.153Z,6.10
2022-10-26T17:12:58.404Z,6.67
2022-10-26T17:15:29.024Z,7.40
2022-10-26T17:17:57.184Z,6.97
2022-10-26T17:20:25.140Z,7.40
2022-10-26T17:22:53.227Z,6.10
2022-10-26T17:25:21.201Z,6.10
2022-10-26T17:27:49.103Z,8.53
2022-10-26T17:30:18.413Z,6.60
2022-10-26T17:32:46.327Z,6.93
2022-10-26T17:35:16.705Z,7.10
2022-10-26T17:37:44.674Z,7.70
2022-10-26T17:40:13.414Z,5.17
2022-10-26T17:42:41.318Z,6.70
2022-10-26T17:45:10.265Z,6.50
2022-10-26T17:47:39.494Z,7.90
2022-10-26T17:50:08.361Z,5.97
2022-10-26T17:52:36.656Z,5.77
2022-10-26T17:55:04.934Z,6.03
2022-10-26T17:57:33.317Z,6.07
2022-10-26T18:00:01.252Z,7.73
2022-10-26T18:02:29.873Z,6.83
2022-10-26T18:05:01.508Z,3.73
2022-10-26T18:07:31.936Z,4.90
2022-10-26T18:10:13.880Z,7.70
2022-10-26T18:12:47.972Z,10.37
2022-10-26T18:15:16.141Z,8.93
2022-10-26T18:17:45.090Z,6.77
2022-10-26T18:20:14.861Z,8.73
2022-10-26T18:22:42.758Z,7.33
2022-10-26T18:25:10.947Z,7.03
2022-10-26T18:27:38.852Z,7.03
2022-10-26T18:30:08.505Z,5.90
2022-10-26T18:32:36.521Z,8.27
2022-10-26T18:35:04.649Z,6.10
2022-10-26T18:37:33.904Z,9.43
2022-10-26T18:40:01.813Z,6.47
2022-10-26T18:42:29.733Z,5.10
2022-10-26T18:45:03.391Z,6.00
2022-10-26T18:47:32.369Z,5.43
2022-10-26T18:50:00.464Z,9.67
2022-10-26T18:52:29.902Z,7.53
2022-10-26T18:54:59.346Z,7.73
2022-10-26T18:57:28.817Z,7.10
2022-10-26T18:59:56.707Z,7.43
2022-10-26T19:02:24.601Z,5.97
2022-10-26T19:04:53.614Z,8.67
2022-10-26T19:07:21.687Z,5.70
2022-10-26T19:09:49.570Z,6.70
2022-10-26T19:12:18.829Z,8.67
2022-10-26T19:14:57.183Z,8.53
2022-10-26T19:17:25.097Z,6.83
2022-10-26T19:19:52.977Z,6.90
2022-10-26T19:22:20.858Z,12.03
2022-10-26T19:24:49.024Z,6.00
2022-10-26T19:29:51.151Z,7.53
2022-10-26T19:32:19.068Z,6.10
2022-10-26T19:34:46.979Z,6.67
2022-10-26T19:37:14.893Z,8.63
2022-10-26T19:39:43.289Z,8.20
2022-10-26T19:42:11.213Z,7.57
2022-10-26T19:44:56.664Z,11.50
2022-10-26T19:47:24.924Z,11.00
2022-10-26T19:49:52.841Z,10.00
2022-10-26T19:52:20.754Z,8.97
2022-10-26T19:54:48.639Z,9.63
2022-10-26T19:57:16.568Z,7.60
2022-10-26T19:59:44.449Z,10.90
2022-10-26T20:02:13.680Z,8.53
2022-10-26T20:04:41.614Z,8.43
2022-10-26T20:07:09.629Z,7.13
2022-10-26T20:09:37.548Z,7.10
2022-10-26T20:12:05.592Z,7.60
2022-10-26T20:14:53.395Z,6.57
2022-10-26T20:17:24.008Z,6.70
2022-10-26T20:19:56.958Z,6.07
2022-10-26T20:22:25.041Z,6.63
2022-10-26T20:24:52.946Z,6.40
2022-10-26T20:27:21.024Z,6.33
2022-10-26T20:29:48.919Z,6.40
2022-10-26T20:32:16.805Z,8.63
2022-10-26T20:34:46.483Z,7.80
2022-10-26T20:37:15.040Z,6.90
2022-10-26T20:39:43.492Z,8.03
2022-10-26T20:42:22.699Z,7.00
2022-10-26T20:45:09.545Z,6.50
2022-10-26T20:47:38.179Z,6.03
2022-10-26T20:50:08.891Z,7.00
2022-10-26T20:52:43.412Z,6.30
2022-10-26T20:55:16.143Z,7.33
2022-10-26T20:57:51.150Z,7.10
2022-10-26T21:00:20.329Z,9.37
2022-10-26T21:02:48.488Z,9.23
2022-10-26T21:05:19.001Z,7.13
2022-10-26T21:07:46.954Z,7.53
2022-10-26T21:10:15.333Z,8.60
2022-10-26T21:12:43.242Z,8.67
2022-10-26T21:15:11.383Z,9.40
2022-10-26T21:17:40.215Z,7.37
2022-10-26T21:20:08.872Z,8.30
2022-10-26T21:22:38.128Z,8.03
2022-10-26T21:25:06.697Z,7.57
2022-10-26T21:27:34.578Z,6.50
2022-10-26T21:30:02.569Z,6.63
2022-10-26T21:32:30.806Z,6.50
2022-10-26T21:34:58.729Z,6.63
2022-10-26T21:37:27.279Z,6.80
2022-10-26T21:39:56.521Z,5.57
2022-10-26T21:42:24.427Z,6.23
2022-10-26T21:44:52.316Z,8.30
2022-10-26T21:47:20.230Z,6.90
2022-10-26T21:49:48.182Z,6.67
2022-10-26T21:52:16.186Z,7.57
2022-10-26T21:54:44.092Z,9.00
2022-10-26T21:57:13.673Z,7.37
2022-10-26T21:59:41.801Z,7.80
2022-10-26T22:02:09.832Z,9.47
2022-10-26T22:04:38.586Z,8.47
2022-10-26T22:07:06.481Z,8.13
2022-10-26T22:09:40.637Z,7.37
2022-10-26T22:12:18.963Z,5.23
2022-10-26T22:14:46.855Z,7.80
2022-10-26T22:17:14.766Z,8.90
2022-10-26T22:19:42.644Z,8.10
2022-10-26T22:22:10.524Z,6.30
2022-10-26T22:24:38.435Z,7.17
2022-10-26T22:27:06.367Z,6.40
2022-10-26T22:29:35.609Z,6.37
2022-10-26T22:32:03.522Z,12.80
2022-10-26T22:34:31.484Z,8.20
2022-10-26T22:36:59.393Z,7.60
2022-10-26T22:39:27.262Z,6.60
2022-10-26T22:41:55.141Z,8.77
2022-10-26T22:44:23.053Z,6.90
2022-10-26T22:46:52.297Z,8.03
2022-10-26T22:49:20.236Z,7.57
2022-10-26T22:51:48.194Z,6.80
2022-10-26T22:54:16.245Z,7.07
2022-10-26T22:56:44.133Z,7.20
2022-10-26T22:59:12.030Z,8.07
2022-10-26T23:01:41.756Z,6.07
2022-10-26T23:04:13.449Z,6.77
2022-10-26T23:06:41.714Z,5.90
2022-10-26T23:09:09.643Z,5.90
2022-10-26T23:11:37.748Z,7.17
2022-10-26T23:14:05.691Z,6.93
2022-10-26T23:16:33.970Z,6.20
2022-10-26T23:19:01.854Z,7.83
2022-10-26T23:21:31.111Z,7.80
2022-10-26T23:23:59.019Z,6.30
2022-10-26T23:26:27.034Z,5.70
2022-10-26T23:28:54.961Z,6.90
2022-10-26T23:31:25.461Z,9.13
2022-10-26T23:33:54.673Z,6.10
2022-10-26T23:36:22.913Z,5.80
2022-10-26T23:38:52.287Z,6.00
2022-10-26T23:41:20.178Z,7.83
2022-10-26T23:43:48.065Z,4.73
2022-10-26T23:46:16.092Z,6.83
2022-10-26T23:48:44.057Z,7.20
2022-10-26T23:51:11.976Z,5.93
2022-10-26T23:53:39.879Z,6.50
2022-10-26T23:56:09.339Z,5.47
2022-10-26T23:58:37.217Z,5.60
